createdAt,value
2023-10-20T00:01:55.569Z,15.77
2023-10-20T00:04:22.253Z,15.55
2023-10-20T00:06:48.853Z,15.45
2023-10-20T00:09:19.315Z,14.48
2023-10-20T00:11:46.420Z,16.42
2023-10-20T00:14:12.981Z,16.33
2023-10-20T00:16:39.559Z,15.43
2023-10-20T00:19:06.224Z,14.80
2023-10-20T00:21:32.830Z,16.42
2023-10-20T00:23:59.454Z,14.02
2023-10-20T00:26:26.222Z,15.17
2023-10-20T00:28:52.845Z,15.63
2023-10-20T00:31:19.537Z,17.02
2023-10-20T00:33:51.372Z,15.90
2023-10-20T00:36:18.784Z,15.60
2023-10-20T00:38:45.560Z,13.87
2023-10-20T00:41:12.384Z,14.25
2023-10-20T00:43:39.694Z,13.65
2023-10-20T00:46:08.223Z,15.68
2023-10-20T00:48:38.362Z,15.20
2023-10-20T00:51:06.988Z,14.57
2023-10-20T00:53:38.021Z,15.55
2023-10-20T00:56:06.262Z,13.82
2023-10-20T00:58:33.482Z,14.90
2023-10-20T01:01:00.711Z,14.48
2023-10-20T01:03:28.907Z,12.63
2023-10-20T01:05:56.845Z,14.60
2023-10-20T01:08:23.533Z,14.38
2023-10-20T01:10:50.199Z,15.02
2023-10-20T01:13:16.939Z,14.98
2023-10-20T01:15:43.663Z,12.87
2023-10-20T01:18:11.647Z,14.00
2023-10-20T01:20:40.298Z,13.45
2023-10-20T01:23:07.123Z,14.60
2023-10-20T01:25:34.104Z,14.63
2023-10-20T01:28:00.948Z,14.27
2023-10-20T01:30:27.788Z,14.52
2023-10-20T01:32:54.546Z,14.07
2023-10-20T01:35:21.361Z,14.70
2023-10-20T01:37:48.659Z,15.80
2023-10-20T01:40:15.661Z,13.60
2023-10-20T01:42:42.189Z,11.60
2023-10-20T01:45:11.001Z,14.43
2023-10-20T01:47:38.241Z,13.27
2023-10-20T01:50:05.592Z,13.85
2023-10-20T01:52:32.174Z,13.00
2023-10-20T01:55:00.409Z,14.93
2023-10-20T01:57:27.242Z,13.27
2023-10-20T01:59:53.864Z,13.15
2023-10-20T02:02:20.473Z,14.02
2023-10-20T02:04:47.574Z,14.43
2023-10-20T02:07:14.273Z,13.45
2023-10-20T02:09:40.832Z,14.23
2023-10-20T02:12:08.704Z,13.50
2023-10-20T02:14:35.671Z,13.07
2023-10-20T02:17:02.921Z,13.83
2023-10-20T02:19:29.582Z,13.43
2023-10-20T02:21:56.371Z,11.88
2023-10-20T02:24:23.263Z,13.82
2023-10-20T02:26:49.884Z,14.30
2023-10-20T02:29:16.563Z,15.10
2023-10-20T02:31:43.134Z,14.02
2023-10-20T02:34:09.729Z,14.15
2023-10-20T02:36:36.356Z,13.10
2023-10-20T02:39:03.100Z,12.95
2023-10-20T02:41:30.199Z,13.93
2023-10-20T02:43:56.944Z,13.40
2023-10-20T02:46:24.035Z,14.73
2023-10-20T02:48:50.833Z,15.32
2023-10-20T02:51:18.870Z,13.77
2023-10-20T02:53:45.953Z,12.47
2023-10-20T02:56:17.456Z,14.40
2023-10-20T02:58:45.123Z,13.68
2023-10-20T03:01:16.036Z,11.32
2023-10-20T03:03:43.272Z,14.40
2023-10-20T03:06:10.012Z,13.37
2023-10-20T03:08:39.234Z,13.88
2023-10-20T03:11:08.892Z,13.30
2023-10-20T03:13:39.099Z,14.00
2023-10-20T03:16:07.020Z,12.55
2023-10-20T03:18:33.918Z,13.37
2023-10-20T03:21:02.507Z,13.93
2023-10-20T03:23:29.580Z,13.57
2023-10-20T03:25:56.221Z,13.30
2023-10-20T03:28:22.877Z,14.98
2023-10-20T03:30:52.036Z,14.70
2023-10-20T03:33:19.401Z,12.02
2023-10-20T03:35:47.268Z,12.32
2023-10-20T03:38:15.828Z,13.82
2023-10-20T03:40:43.165Z,13.13
2023-10-20T03:43:11.394Z,12.83
2023-10-20T03:45:50.879Z,12.27
2023-10-20T03:48:18.054Z,12.30
2023-10-20T03:50:45.473Z,11.40
2023-10-20T03:53:17.400Z,12.40
2023-10-20T03:55:44.495Z,12.93
2023-10-20T03:58:12.430Z,12.07
2023-10-20T04:00:43.198Z,12.07
2023-10-20T04:03:10.240Z,13.43
2023-10-20T04:05:37.062Z,12.63
2023-10-20T04:08:07.400Z,11.47
2023-10-20T04:10:34.325Z,12.38
2023-10-20T04:13:03.180Z,12.43
2023-10-20T04:15:33.808Z,11.88
2023-10-20T04:18:00.484Z,12.23
2023-10-20T04:20:27.337Z,11.83
2023-10-20T04:22:54.156Z,12.43
2023-10-20T04:25:25.141Z,12.95
2023-10-20T04:27:59.272Z,12.63
2023-10-20T04:30:44.924Z,13.88
2023-10-20T04:33:30.181Z,11.63
2023-10-20T04:36:15.438Z,13.07
2023-10-20T04:39:00.294Z,13.70
2023-10-20T04:41:45.377Z,11.63
2023-10-20T04:44:17.732Z,12.85
2023-10-20T04:47:03.774Z,12.73
2023-10-20T04:49:48.940Z,11.05
2023-10-20T04:52:38.612Z,11.35
2023-10-20T04:55:11.603Z,13.25
2023-10-20T04:57:51.818Z,13.63
2023-10-20T05:00:21.836Z,11.63
2023-10-20T05:02:55.283Z,12.15
2023-10-20T05:05:26.586Z,12.57
2023-10-20T05:07:54.965Z,11.90
2023-10-20T05:10:23.227Z,11.93
2023-10-20T05:12:49.865Z,11.40
2023-10-20T05:15:16.819Z,12.35
2023-10-20T05:17:43.446Z,12.63
2023-10-20T05:20:14.267Z,11.55
2023-10-20T05:22:43.755Z,10.98
2023-10-20T05:25:12.948Z,11.60
2023-10-20T05:27:40.162Z,12.07
2023-10-20T05:30:10.252Z,11.43
2023-10-20T05:32:38.746Z,9.45
2023-10-20T05:35:08.628Z,10.38
2023-10-20T05:37:35.568Z,10.23
2023-10-20T05:40:04.567Z,9.65
2023-10-20T05:42:31.292Z,8.90
2023-10-20T05:45:10.957Z,8.90
2023-10-20T05:47:39.488Z,8.93
2023-10-20T05:50:07.697Z,8.90
2023-10-20T05:52:37.120Z,9.43
2023-10-20T05:55:04.833Z,9.00
2023-10-20T05:57:31.656Z,8.52
2023-10-20T06:00:01.411Z,7.93
2023-10-20T06:02:29.213Z,7.93
2023-10-20T06:04:56.112Z,7.00
2023-10-20T06:07:22.917Z,6.95
2023-10-20T06:09:50.690Z,7.32
2023-10-20T06:12:18.060Z,7.07
2023-10-20T06:14:45.049Z,6.23
2023-10-20T06:17:12.223Z,5.60
2023-10-20T06:19:38.950Z,6.15
2023-10-20T06:22:06.820Z,5.47
2023-10-20T06:24:34.666Z,6.53
2023-10-20T06:27:03.998Z,6.57
2023-10-20T06:29:47.505Z,4.68
2023-10-20T06:32:27.386Z,5.22
2023-10-20T06:35:00.675Z,6.45
2023-10-20T06:37:43.282Z,6.57
2023-10-20T06:40:16.874Z,5.77
2023-10-20T06:42:46.741Z,5.93
2023-10-20T06:45:13.283Z,6.25
2023-10-20T06:47:42.282Z,6.28
2023-10-20T06:50:11.936Z,7.10
2023-10-20T06:52:38.770Z,6.23
2023-10-20T06:55:30.520Z,6.47
2023-10-20T06:57:53.040Z,6.88
2023-10-20T07:00:22.044Z,6.70
2023-10-20T07:02:49.861Z,6.65
2023-10-20T07:05:18.793Z,6.77
2023-10-20T07:07:45.475Z,6.93
2023-10-20T07:10:12.064Z,7.53
2023-10-20T07:12:39.284Z,6.80
2023-10-20T07:15:06.934Z,7.28
2023-10-20T07:17:34.179Z,6.27
2023-10-20T07:20:00.959Z,6.32
2023-10-20T07:22:31.120Z,6.90
2023-10-20T07:24:59.065Z,6.60
2023-10-20T07:27:26.616Z,6.60
2023-10-20T07:29:53.510Z,7.17
2023-10-20T07:32:20.719Z,6.93
2023-10-20T07:34:48.213Z,6.15
2023-10-20T07:37:17.010Z,6.28
2023-10-20T07:39:44.881Z,6.00
2023-10-20T07:42:11.724Z,6.70
2023-10-20T07:44:38.605Z,6.68
2023-10-20T07:47:05.356Z,6.13
2023-10-20T07:49:32.156Z,6.10
2023-10-20T07:51:59.969Z,5.07
2023-10-20T07:54:27.249Z,5.63
2023-10-20T07:56:53.981Z,4.78
2023-10-20T07:59:20.659Z,5.78
2023-10-20T08:01:47.378Z,6.10
2023-10-20T08:04:14.281Z,4.93
2023-10-20T08:06:41.834Z,4.57
2023-10-20T08:09:10.736Z,4.13
2023-10-20T08:11:37.688Z,5.38
2023-10-20T08:14:06.448Z,4.60
2023-10-20T08:16:33.527Z,4.00
2023-10-20T08:19:02.039Z,3.93
2023-10-20T08:21:31.156Z,3.60
2023-10-20T08:23:59.473Z,3.75
2023-10-20T08:26:26.214Z,3.72
2023-10-20T08:28:53.128Z,2.47
2023-10-20T08:31:21.111Z,2.33
2023-10-20T08:33:49.852Z,2.42
2023-10-20T08:36:17.402Z,2.80
2023-10-20T08:38:48.912Z,2.50
2023-10-20T08:41:22.977Z,2.00
2023-10-20T08:43:52.086Z,2.37
2023-10-20T08:46:19.604Z,1.90
2023-10-20T08:48:48.219Z,1.88
2023-10-20T08:51:18.236Z,1.55
2023-10-20T08:53:48.534Z,1.95
2023-10-20T08:56:15.766Z,1.47
2023-10-20T08:58:46.709Z,1.38
2023-10-20T09:01:14.335Z,1.65
2023-10-20T09:03:50.085Z,1.60
2023-10-20T09:06:17.143Z,1.27
2023-10-20T09:08:47.230Z,1.10
2023-10-20T09:11:14.349Z,1.17
2023-10-20T09:13:44.198Z,1.60
2023-10-20T09:16:13.012Z,1.35
2023-10-20T09:18:49.238Z,1.15
2023-10-20T09:21:18.287Z,1.00
2023-10-20T09:24:02.781Z,0.90
2023-10-20T09:26:33.103Z,1.08
2023-10-20T09:29:02.353Z,0.98
2023-10-20T09:31:29.667Z,1.00
2023-10-20T09:33:56.512Z,0.63
2023-10-20T09:36:27.399Z,0.75
2023-10-20T09:38:55.894Z,0.52
2023-10-20T09:41:31.242Z,0.85
2023-10-20T09:44:10.248Z,0.70
2023-10-20T09:46:43.340Z,0.50
2023-10-20T09:49:18.294Z,0.77
2023-10-20T09:51:49.071Z,0.80
2023-10-20T09:54:18.791Z,0.73
2023-10-20T09:56:47.159Z,0.60
2023-10-20T09:59:30.087Z,0.50
2023-10-20T10:01:58.076Z,0.43
2023-10-20T10:04:29.729Z,0.70
2023-10-20T10:07:01.022Z,1.00
2023-10-20T10:09:44.634Z,0.60
2023-10-20T10:12:15.748Z,0.67
2023-10-20T10:14:42.718Z,0.60
2023-10-20T10:17:11.310Z,0.50
2023-10-20T10:19:50.271Z,1.17
2023-10-20T10:22:17.421Z,0.55
2023-10-20T10:24:57.895Z,0.57
2023-10-20T10:27:29.368Z,0.50
2023-10-20T10:30:07.569Z,0.32
2023-10-20T10:32:42.907Z,0.43
2023-10-20T10:35:11.005Z,0.70
2023-10-20T10:37:39.126Z,0.40
2023-10-20T10:40:15.640Z,0.35
2023-10-20T10:42:47.579Z,0.38
2023-10-20T10:45:19.235Z,0.50
2023-10-20T10:47:47.251Z,0.70
2023-10-20T10:50:16.644Z,0.50
2023-10-20T10:52:45.779Z,0.40
2023-10-20T10:55:12.498Z,0.40
2023-10-20T10:57:40.585Z,0.40
2023-10-20T11:00:08.383Z,0.40
2023-10-20T11:02:35.589Z,0.20
2023-10-20T11:05:03.909Z,0.50
2023-10-20T11:07:30.499Z,0.30
2023-10-20T11:09:57.166Z,0.30
2023-10-20T11:12:24.051Z,0.30
2023-10-20T11:14:51.599Z,0.30
2023-10-20T11:17:18.521Z,0.30
2023-10-20T11:19:46.054Z,0.50
2023-10-20T11:22:17.063Z,0.30
2023-10-20T11:24:44.054Z,0.40
2023-10-20T11:27:14.111Z,0.40
2023-10-20T11:29:57.609Z,0.50
2023-10-20T11:32:27.293Z,0.50
2023-10-20T11:34:54.438Z,0.38
2023-10-20T11:37:21.009Z,0.35
2023-10-20T11:39:48.378Z,0.30
2023-10-20T11:42:15.558Z,0.32
2023-10-20T11:44:42.510Z,0.40
2023-10-20T11:47:09.121Z,0.50
2023-10-20T11:49:35.929Z,0.38
2023-10-20T11:52:09.872Z,0.30
2023-10-20T11:54:37.548Z,0.40
2023-10-20T11:57:04.285Z,0.43
2023-10-20T11:59:30.913Z,0.40
2023-10-20T12:13:10.408Z,0.30
2023-10-20T12:15:38.831Z,0.30
2023-10-20T12:18:08.176Z,0.30
2023-10-20T12:20:35.704Z,0.40
2023-10-20T12:23:16.622Z,0.30
2023-10-20T12:25:43.731Z,0.40
2023-10-20T12:28:11.768Z,0.40
2023-10-20T12:30:38.591Z,0.32
2023-10-20T12:33:06.943Z,0.40
2023-10-20T12:35:33.780Z,0.40
2023-10-20T12:38:00.633Z,0.30
2023-10-20T12:40:27.494Z,0.40
2023-10-20T12:42:54.945Z,0.40
2023-10-20T12:45:21.555Z,0.50
2023-10-20T12:47:48.508Z,0.60
2023-10-20T12:50:15.796Z,0.30
2023-10-20T12:52:42.545Z,0.30
2023-10-20T12:55:11.152Z,0.30
2023-10-20T12:57:55.771Z,0.40
2023-10-20T13:00:22.393Z,0.38
2023-10-20T13:02:53.884Z,0.38
2023-10-20T13:05:22.662Z,0.40
2023-10-20T13:07:51.497Z,0.40
2023-10-20T13:10:18.946Z,0.30
2023-10-20T13:12:46.144Z,0.30
2023-10-20T13:15:12.944Z,0.40
2023-10-20T13:17:39.826Z,0.40
2023-10-20T13:20:09.995Z,0.30
2023-10-20T13:22:36.623Z,0.30
2023-10-20T13:25:03.714Z,0.45
2023-10-20T13:27:31.199Z,0.40
2023-10-20T13:29:58.202Z,0.30
2023-10-20T13:32:25.021Z,0.40
2023-10-20T13:34:51.954Z,0.30
2023-10-20T13:37:21.180Z,0.30
2023-10-20T13:39:48.390Z,0.50
2023-10-20T13:42:15.656Z,0.30
2023-10-20T13:44:42.442Z,0.63
2023-10-20T13:47:09.202Z,0.30
2023-10-20T13:49:36.206Z,0.30
2023-10-20T13:52:03.358Z,0.40
2023-10-20T13:54:30.380Z,0.32
2023-10-20T13:56:57.275Z,0.30
2023-10-20T13:59:24.138Z,0.30
2023-10-20T14:01:50.734Z,0.30
2023-10-20T14:04:19.554Z,0.30
2023-10-20T14:06:47.049Z,0.35
2023-10-20T14:09:15.385Z,0.47
2023-10-20T14:11:42.310Z,0.30
2023-10-20T14:14:09.140Z,0.30
2023-10-20T14:16:36.089Z,0.30
2023-10-20T14:19:02.999Z,0.30
2023-10-20T14:21:29.867Z,0.50
2023-10-20T14:24:06.452Z,0.30
2023-10-20T14:26:33.372Z,0.30
2023-10-20T14:29:00.143Z,0.25
2023-10-20T14:31:30.847Z,0.30
2023-10-20T14:33:59.777Z,0.30
2023-10-20T14:36:26.693Z,0.20
2023-10-20T14:38:53.468Z,0.30
2023-10-20T14:41:20.101Z,0.20
2023-10-20T14:43:46.788Z,0.30
2023-10-20T14:46:14.530Z,0.25
2023-10-20T14:48:41.844Z,0.30
2023-10-20T14:51:09.551Z,0.40
2023-10-20T14:53:36.725Z,0.30
2023-10-20T14:56:04.968Z,0.30
2023-10-20T14:58:33.616Z,0.30
2023-10-20T15:01:00.631Z,0.30
2023-10-20T15:03:28.334Z,0.32
2023-10-20T15:05:55.201Z,0.32
2023-10-20T15:08:22.112Z,0.40
2023-10-20T15:10:49.336Z,0.45
2023-10-20T15:13:16.495Z,0.27
2023-10-20T15:15:43.320Z,0.35
2023-10-20T15:18:10.706Z,0.50
2023-10-20T15:20:41.348Z,0.40
2023-10-20T15:23:17.184Z,0.55
2023-10-20T15:25:44.673Z,0.53
2023-10-20T15:28:11.383Z,0.50
2023-10-20T15:30:39.004Z,0.40
2023-10-20T15:33:06.127Z,0.40
2023-10-20T15:35:35.384Z,0.40
2023-10-20T15:38:03.550Z,0.40
2023-10-20T15:40:30.335Z,0.50
2023-10-20T15:42:56.925Z,0.50
2023-10-20T15:45:23.787Z,0.80
2023-10-20T15:47:52.280Z,0.70
2023-10-20T15:50:19.111Z,0.67
2023-10-20T15:52:45.689Z,0.70
2023-10-20T15:55:13.791Z,0.90
2023-10-20T15:57:40.388Z,0.70
2023-10-20T16:00:07.586Z,0.63
2023-10-20T16:02:34.460Z,0.50
2023-10-20T16:05:03.262Z,0.40
2023-10-20T16:07:30.353Z,0.63
2023-10-20T16:09:58.284Z,0.40
2023-10-20T16:12:24.991Z,0.70
2023-10-20T16:14:52.809Z,1.70
2023-10-20T16:17:20.398Z,0.80
2023-10-20T16:19:46.989Z,0.70
2023-10-20T16:22:14.114Z,0.68
2023-10-20T16:24:42.436Z,1.00
2023-10-20T16:27:11.436Z,0.83
2023-10-20T16:29:38.201Z,1.00
2023-10-20T16:32:05.196Z,0.98
2023-10-20T16:34:31.976Z,0.80
2023-10-20T16:36:58.594Z,0.80
2023-10-20T16:39:25.256Z,0.70
2023-10-20T16:41:52.124Z,0.90
2023-10-20T16:44:18.653Z,1.33
2023-10-20T16:46:45.365Z,1.15
2023-10-20T16:49:14.600Z,1.27
2023-10-20T16:51:44.806Z,1.07
2023-10-20T16:54:12.505Z,0.95
2023-10-20T16:56:39.593Z,1.10
2023-10-20T16:59:06.664Z,1.00
2023-10-20T17:01:33.443Z,1.25
2023-10-20T17:04:00.795Z,1.20
2023-10-20T17:06:27.984Z,1.20
2023-10-20T17:08:57.572Z,1.23
2023-10-20T17:11:24.326Z,1.27
2023-10-20T17:13:53.124Z,1.50
2023-10-20T17:16:19.832Z,1.70
2023-10-20T17:18:47.953Z,1.42
2023-10-20T17:21:14.940Z,1.70
2023-10-20T17:23:43.877Z,2.30
2023-10-20T17:26:10.795Z,2.47
2023-10-20T17:28:37.992Z,3.00
2023-10-20T17:31:06.086Z,1.88
2023-10-20T17:33:33.291Z,2.03
2023-10-20T17:36:07.637Z,3.75
2023-10-20T17:38:35.095Z,2.67
2023-10-20T17:41:04.304Z,3.40
2023-10-20T17:43:32.112Z,3.00
2023-10-20T17:46:04.015Z,3.30
2023-10-20T17:48:30.912Z,3.40
2023-10-20T17:51:01.599Z,3.72
2023-10-20T17:53:29.045Z,3.33
2023-10-20T17:55:55.792Z,3.85
2023-10-20T17:58:22.460Z,3.83
2023-10-20T18:00:50.321Z,4.38
2023-10-20T18:03:18.296Z,4.38
2023-10-20T18:05:45.151Z,4.00
2023-10-20T18:08:12.837Z,4.30
2023-10-20T18:10:43.008Z,4.80
2023-10-20T18:13:10.304Z,5.70
2023-10-20T18:15:37.820Z,4.75
2023-10-20T18:18:05.288Z,5.47
2023-10-20T18:20:32.214Z,5.25
2023-10-20T18:23:00.001Z,4.88
2023-10-20T18:25:28.797Z,4.45
2023-10-20T18:27:55.573Z,6.97
2023-10-20T18:30:22.293Z,5.63
2023-10-20T18:32:49.171Z,4.75
2023-10-20T18:35:16.950Z,5.68
2023-10-20T18:37:43.558Z,5.90
2023-10-20T18:40:10.781Z,4.95
2023-10-20T18:42:37.447Z,3.93
2023-10-20T18:45:04.823Z,5.70
2023-10-20T18:47:32.652Z,5.95
2023-10-20T18:49:59.447Z,5.60
2023-10-20T18:52:26.037Z,6.40
2023-10-20T18:54:53.119Z,7.23
2023-10-20T18:57:19.767Z,4.43
2023-10-20T18:59:46.689Z,5.85
2023-10-20T19:02:14.533Z,4.70
2023-10-20T19:04:41.413Z,5.75
2023-10-20T19:07:08.352Z,5.23
2023-10-20T19:09:35.263Z,4.57
2023-10-20T19:12:02.295Z,3.10
2023-10-20T19:14:29.050Z,4.07
2023-10-20T19:16:56.099Z,4.78
2023-10-20T19:19:22.930Z,3.60
2023-10-20T19:21:50.818Z,3.38
2023-10-20T19:24:19.206Z,3.45
2023-10-20T19:26:45.913Z,3.95
2023-10-20T19:29:13.261Z,4.40
2023-10-20T19:31:40.440Z,4.07
2023-10-20T19:34:08.380Z,4.88
2023-10-20T19:36:35.048Z,4.03
2023-10-20T19:39:01.894Z,4.00
2023-10-20T19:41:28.598Z,4.63
2023-10-20T19:43:55.445Z,3.80
2023-10-20T19:46:22.837Z,4.63
2023-10-20T19:48:49.605Z,3.28
2023-10-20T19:51:16.359Z,4.72
2023-10-20T19:53:43.194Z,4.72
2023-10-20T19:56:09.952Z,3.70
2023-10-20T19:58:36.613Z,4.30
2023-10-20T20:01:04.441Z,3.70
2023-10-20T20:03:31.570Z,3.97
2023-10-20T20:05:58.638Z,4.28
2023-10-20T20:08:25.681Z,3.47
2023-10-20T20:10:52.314Z,4.70
2023-10-20T20:13:18.868Z,5.15
2023-10-20T20:15:45.445Z,3.58
2023-10-20T20:18:12.407Z,4.03
2023-10-20T20:20:39.239Z,3.50
2023-10-20T20:23:05.984Z,4.72
2023-10-20T20:25:32.631Z,3.47
2023-10-20T20:27:59.266Z,4.85
2023-10-20T20:30:25.836Z,5.85
2023-10-20T20:32:52.787Z,4.30
2023-10-20T20:35:21.271Z,3.20
2023-10-20T20:37:47.947Z,5.03
2023-10-20T20:40:14.720Z,4.15
2023-10-20T20:42:41.408Z,5.22
2023-10-20T20:45:09.004Z,4.90
2023-10-20T20:47:38.238Z,4.47
2023-10-20T20:50:10.370Z,3.55
2023-10-20T20:52:40.266Z,6.30
2023-10-20T20:55:07.070Z,4.93
2023-10-20T20:57:33.659Z,4.17
2023-10-20T21:00:00.783Z,4.45
2023-10-20T21:02:27.524Z,3.80
2023-10-20T21:04:55.457Z,4.13
2023-10-20T21:07:22.267Z,3.60
2023-10-20T21:09:49.149Z,4.27
2023-10-20T21:12:16.006Z,4.03
2023-10-20T21:14:42.707Z,4.80
2023-10-20T21:17:09.327Z,3.88
2023-10-20T21:19:36.050Z,3.55
2023-10-20T21:22:04.111Z,3.53
2023-10-20T21:24:30.710Z,4.45
2023-10-20T21:26:57.580Z,4.55
2023-10-20T21:29:26.387Z,4.22
2023-10-20T21:31:53.681Z,3.97
2023-10-20T21:34:20.297Z,4.13
2023-10-20T21:36:47.131Z,3.45
2023-10-20T21:39:14.221Z,3.85
2023-10-20T21:41:41.008Z,3.28
2023-10-20T21:44:08.297Z,4.55
2023-10-20T21:46:37.481Z,3.70
2023-10-20T21:49:04.138Z,3.80
2023-10-20T21:51:30.812Z,3.63
2023-10-20T21:53:57.903Z,4.30
2023-10-20T21:56:24.569Z,3.08
2023-10-20T21:58:51.325Z,4.47
2023-10-20T22:01:18.011Z,3.70
2023-10-20T22:03:46.251Z,6.28
2023-10-20T22:06:12.967Z,6.28
2023-10-20T22:08:39.894Z,5.95
2023-10-20T22:11:06.726Z,3.80
2023-10-20T22:13:33.332Z,4.05
2023-10-20T22:16:00.004Z,3.80
2023-10-20T22:18:27.264Z,6.40
2023-10-20T22:20:54.403Z,4.43
2023-10-20T22:23:23.376Z,5.17
2023-10-20T22:25:50.592Z,4.75
2023-10-20T22:28:17.219Z,3.90
2023-10-20T22:30:44.061Z,4.22
2023-10-20T22:33:11.073Z,4.30
2023-10-20T22:35:38.052Z,4.67
2023-10-20T22:38:04.720Z,4.40
2023-10-20T22:40:31.538Z,4.32
2023-10-20T22:42:58.260Z,5.88
2023-10-20T22:45:25.288Z,4.18
2023-10-20T22:47:51.945Z,8.20
2023-10-20T22:50:21.417Z,8.18
2023-10-20T22:52:48.957Z,13.27
2023-10-20T22:55:16.080Z,6.28
2023-10-20T22:57:42.759Z,9.30
2023-10-20T23:00:10.999Z,13.93
2023-10-20T23:02:39.812Z,6.10
2023-10-20T23:05:07.993Z,18.63
2023-10-20T23:07:35.057Z,12.45
2023-10-20T23:10:01.795Z,9.13
2023-10-20T23:12:28.436Z,9.10
2023-10-20T23:14:55.155Z,18.83
2023-10-20T23:17:21.862Z,15.80
2023-10-20T23:19:48.522Z,7.88
2023-10-20T23:22:16.055Z,12.30
2023-10-20T23:24:42.738Z,5.17
2023-10-20T23:27:09.574Z,5.60
2023-10-20T23:29:36.494Z,5.30
2023-10-20T23:32:08.652Z,4.07
2023-10-20T23:34:36.043Z,4.85
2023-10-20T23:37:04.700Z,4.33
2023-10-20T23:39:34.047Z,4.43
2023-10-20T23:42:02.101Z,4.55
2023-10-20T23:44:30.966Z,4.18
2023-10-20T23:46:57.833Z,4.20
2023-10-20T23:49:24.416Z,4.53
2023-10-20T23:51:51.808Z,3.80
2023-10-20T23:54:18.562Z,4.30
2023-10-20T23:56:45.209Z,3.95
2023-10-20T23:59:11.785Z,3.95
